sensor_id;sensor_type;location;lat;lon;timestamp;P1;durP1;ratioP1;P2;durP2;ratioP2
32491;SDS011;20605;49.742;18.802;2023-03-21T00:01:21;51.70;;;34.60;;
32491;SDS011;20605;49.742;18.802;2023-03-21T00:03:47;52.60;;;35.40;;
32491;SDS011;20605;49.742;18.802;2023-03-21T00:06:13;51.50;;;35.10;;
32491;SDS011;20605;49.742;18.802;2023-03-21T00:08:40;51.80;;;35.10;;
32491;SDS011;20605;49.742;18.802;2023-03-21T00:11:07;50.00;;;33.80;;
32491;SDS011;20605;49.742;18.802;2023-03-21T00:13:35;50.30;;;34.60;;
32491;SDS011;20605;49.742;18.802;2023-03-21T00:16:03;52.40;;;36.60;;
32491;SDS011;20605;49.742;18.802;2023-03-21T00:18:30;57.40;;;35.80;;
32491;SDS011;20605;49.742;18.802;2023-03-21T00:20:59;49.30;;;35.30;;
32491;SDS011;20605;49.742;18.802;2023-03-21T00:23:29;56.70;;;39.60;;
32491;SDS011;20605;49.742;18.802;2023-03-21T00:25:58;47.00;;;31.80;;
32491;SDS011;20605;49.742;18.802;2023-03-21T00:28:24;44.60;;;31.80;;
32491;SDS011;20605;49.742;18.802;2023-03-21T00:30:55;39.90;;;30.00;;
32491;SDS011;20605;49.742;18.802;2023-03-21T00:33:23;46.90;;;33.80;;
32491;SDS011;20605;49.742;18.802;2023-03-21T00:35:51;46.30;;;33.20;;
32491;SDS011;20605;49.742;18.802;2023-03-21T00:38:18;51.70;;;34.20;;
32491;SDS011;20605;49.742;18.802;2023-03-21T00:40:46;48.60;;;32.20;;
32491;SDS011;20605;49.742;18.802;2023-03-21T00:43:13;41.60;;;29.10;;
32491;SDS011;20605;49.742;18.802;2023-03-21T00:45:44;44.80;;;29.60;;
32491;SDS011;20605;49.742;18.802;2023-03-21T00:48:11;44.30;;;29.70;;
32491;SDS011;20605;49.742;18.802;2023-03-21T00:50:39;40.50;;;29.50;;
32491;SDS011;20605;49.742;18.802;2023-03-21T00:53:06;41.30;;;30.70;;
32491;SDS011;20605;49.742;18.802;2023-03-21T00:55:32;46.80;;;33.20;;
32491;SDS011;20605;49.742;18.802;2023-03-21T00:57:58;48.20;;;34.00;;
32491;SDS011;20605;49.742;18.802;2023-03-21T01:00:25;58.90;;;40.80;;
32491;SDS011;20605;49.742;18.802;2023-03-21T01:02:51;35.80;;;26.00;;
32491;SDS011;20605;49.742;18.802;2023-03-21T01:05:31;29.80;;;21.60;;
32491;SDS011;20605;49.742;18.802;2023-03-21T01:08:39;18.20;;;12.30;;
32491;SDS011;20605;49.742;18.802;2023-03-21T01:11:09;20.90;;;15.30;;
32491;SDS011;20605;49.742;18.802;2023-03-21T01:13:37;17.50;;;13.40;;
32491;SDS011;20605;49.742;18.802;2023-03-21T01:16:04;17.60;;;13.10;;
32491;SDS011;20605;49.742;18.802;2023-03-21T01:18:32;16.50;;;11.60;;
32491;SDS011;20605;49.742;18.802;2023-03-21T01:20:59;20.90;;;14.20;;
32491;SDS011;20605;49.742;18.802;2023-03-21T01:23:27;18.90;;;12.20;;
32491;SDS011;20605;49.742;18.802;2023-03-21T01:25:54;19.10;;;13.30;;
32491;SDS011;20605;49.742;18.802;2023-03-21T01:28:21;24.10;;;14.30;;
32491;SDS011;20605;49.742;18.802;2023-03-21T01:30:51;15.80;;;12.10;;
32491;SDS011;20605;49.742;18.802;2023-03-21T01:33:17;14.40;;;11.70;;
32491;SDS011;20605;49.742;18.802;2023-03-21T01:35:45;13.00;;;9.60;;
32491;SDS011;20605;49.742;18.802;2023-03-21T01:38:11;11.80;;;8.80;;
32491;SDS011;20605;49.742;18.802;2023-03-21T01:40:42;13.70;;;7.90;;
32491;SDS011;20605;49.742;18.802;2023-03-21T01:43:33;10.20;;;7.90;;
32491;SDS011;20605;49.742;18.802;2023-03-21T01:49:41;12.80;;;8.00;;
32491;SDS011;20605;49.742;18.802;2023-03-21T01:51:59;8.60;;;6.90;;
32491;SDS011;20605;49.742;18.802;2023-03-21T01:54:29;11.20;;;7.80;;
32491;SDS011;20605;49.742;18.802;2023-03-21T01:56:59;10.90;;;8.60;;
32491;SDS011;20605;49.742;18.802;2023-03-21T01:59:30;12.40;;;9.10;;
32491;SDS011;20605;49.742;18.802;2023-03-21T02:02:27;14.30;;;10.70;;
32491;SDS011;20605;49.742;18.802;2023-03-21T02:05:16;13.90;;;8.80;;
32491;SDS011;20605;49.742;18.802;2023-03-21T02:07:58;12.50;;;8.80;;
32491;SDS011;20605;49.742;18.802;2023-03-21T02:10:26;10.70;;;9.40;;
32491;SDS011;20605;49.742;18.802;2023-03-21T02:12:54;13.50;;;10.80;;
32491;SDS011;20605;49.742;18.802;2023-03-21T02:15:37;24.30;;;14.20;;
32491;SDS011;20605;49.742;18.802;2023-03-21T02:27:07;13.00;;;10.90;;
32491;SDS011;20605;49.742;18.802;2023-03-21T02:35:50;15.50;;;11.30;;
32491;SDS011;20605;49.742;18.802;2023-03-21T02:38:31;13.10;;;9.80;;
32491;SDS011;20605;49.742;18.802;2023-03-21T02:51:28;12.00;;;8.80;;
32491;SDS011;20605;49.742;18.802;2023-03-21T02:53:58;10.90;;;8.30;;
32491;SDS011;20605;49.742;18.802;2023-03-21T02:56:29;10.60;;;8.30;;
32491;SDS011;20605;49.742;18.802;2023-03-21T02:58:58;10.60;;;7.50;;
32491;SDS011;20605;49.742;18.802;2023-03-21T03:01:25;11.00;;;7.80;;
32491;SDS011;20605;49.742;18.802;2023-03-21T03:03:54;10.30;;;7.80;;
32491;SDS011;20605;49.742;18.802;2023-03-21T03:06:24;15.00;;;8.60;;
32491;SDS011;20605;49.742;18.802;2023-03-21T03:11:42;20.60;;;10.50;;
32491;SDS011;20605;49.742;18.802;2023-03-21T03:20:19;16.00;;;9.40;;
32491;SDS011;20605;49.742;18.802;2023-03-21T03:25:28;14.20;;;8.80;;
32491;SDS011;20605;49.742;18.802;2023-03-21T03:28:17;12.50;;;8.10;;
32491;SDS011;20605;49.742;18.802;2023-03-21T03:30:47;14.20;;;9.70;;
32491;SDS011;20605;49.742;18.802;2023-03-21T03:33:16;15.40;;;9.60;;
32491;SDS011;20605;49.742;18.802;2023-03-21T03:35:49;14.10;;;9.10;;
32491;SDS011;20605;49.742;18.802;2023-03-21T03:38:17;10.90;;;8.40;;
32491;SDS011;20605;49.742;18.802;2023-03-21T03:40:52;14.10;;;8.50;;
32491;SDS011;20605;49.742;18.802;2023-03-21T03:43:46;16.00;;;9.80;;
32491;SDS011;20605;49.742;18.802;2023-03-21T03:46:20;13.50;;;9.70;;
32491;SDS011;20605;49.742;18.802;2023-03-21T03:49:00;10.60;;;8.30;;
32491;SDS011;20605;49.742;18.802;2023-03-21T03:52:15;8.90;;;6.90;;
32491;SDS011;20605;49.742;18.802;2023-03-21T03:54:45;10.00;;;7.40;;
32491;SDS011;20605;49.742;18.802;2023-03-21T03:57:13;11.40;;;8.20;;
32491;SDS011;20605;49.742;18.802;2023-03-21T03:59:41;13.00;;;8.50;;
32491;SDS011;20605;49.742;18.802;2023-03-21T04:02:35;15.40;;;10.40;;
32491;SDS011;20605;49.742;18.802;2023-03-21T04:05:01;13.70;;;9.80;;
32491;SDS011;20605;49.742;18.802;2023-03-21T04:07:29;14.00;;;9.80;;
32491;SDS011;20605;49.742;18.802;2023-03-21T04:09:57;12.40;;;9.40;;
32491;SDS011;20605;49.742;18.802;2023-03-21T04:12:23;12.30;;;10.30;;
32491;SDS011;20605;49.742;18.802;2023-03-21T04:15:10;15.90;;;11.70;;
32491;SDS011;20605;49.742;18.802;2023-03-21T04:17:40;19.00;;;12.60;;
32491;SDS011;20605;49.742;18.802;2023-03-21T04:20:07;18.50;;;11.20;;
32491;SDS011;20605;49.742;18.802;2023-03-21T04:22:34;14.00;;;10.50;;
32491;SDS011;20605;49.742;18.802;2023-03-21T04:25:00;15.50;;;10.70;;
32491;SDS011;20605;49.742;18.802;2023-03-21T04:27:27;16.30;;;10.30;;
32491;SDS011;20605;49.742;18.802;2023-03-21T04:30:22;12.20;;;9.60;;
32491;SDS011;20605;49.742;18.802;2023-03-21T04:33:15;12.30;;;9.80;;
32491;SDS011;20605;49.742;18.802;2023-03-21T04:37:01;12.80;;;10.40;;
32491;SDS011;20605;49.742;18.802;2023-03-21T04:40:48;13.70;;;10.10;;
32491;SDS011;20605;49.742;18.802;2023-03-21T04:43:15;13.00;;;9.80;;
32491;SDS011;20605;49.742;18.802;2023-03-21T04:45:41;13.60;;;10.00;;
32491;SDS011;20605;49.742;18.802;2023-03-21T04:48:07;10.50;;;9.40;;
32491;SDS011;20605;49.742;18.802;2023-03-21T04:50:33;13.80;;;12.30;;
32491;SDS011;20605;49.742;18.802;2023-03-21T04:52:59;14.40;;;11.50;;
32491;SDS011;20605;49.742;18.802;2023-03-21T04:55:25;13.00;;;10.20;;
32491;SDS011;20605;49.742;18.802;2023-03-21T04:57:54;13.50;;;9.40;;
32491;SDS011;20605;49.742;18.802;2023-03-21T05:00:20;9.90;;;8.70;;
32491;SDS011;20605;49.742;18.802;2023-03-21T05:02:47;10.80;;;8.10;;
32491;SDS011;20605;49.742;18.802;2023-03-21T05:05:13;8.80;;;7.90;;
32491;SDS011;20605;49.742;18.802;2023-03-21T05:07:40;10.20;;;8.40;;
32491;SDS011;20605;49.742;18.802;2023-03-21T05:10:06;9.60;;;8.20;;
32491;SDS011;20605;49.742;18.802;2023-03-21T05:12:34;13.10;;;10.60;;
32491;SDS011;20605;49.742;18.802;2023-03-21T05:15:00;12.00;;;10.70;;
32491;SDS011;20605;49.742;18.802;2023-03-21T05:17:26;15.30;;;11.40;;
32491;SDS011;20605;49.742;18.802;2023-03-21T05:19:54;11.90;;;9.80;;
32491;SDS011;20605;49.742;18.802;2023-03-21T05:22:23;9.80;;;8.20;;
32491;SDS011;20605;49.742;18.802;2023-03-21T05:26:09;10.60;;;8.60;;
32491;SDS011;20605;49.742;18.802;2023-03-21T05:29:55;12.80;;;9.90;;
32491;SDS011;20605;49.742;18.802;2023-03-21T05:32:46;11.90;;;9.40;;
32491;SDS011;20605;49.742;18.802;2023-03-21T05:35:12;13.20;;;9.40;;
32491;SDS011;20605;49.742;18.802;2023-03-21T05:37:38;12.00;;;9.30;;
32491;SDS011;20605;49.742;18.802;2023-03-21T05:40:06;10.90;;;8.40;;
32491;SDS011;20605;49.742;18.802;2023-03-21T05:42:34;10.00;;;8.30;;
32491;SDS011;20605;49.742;18.802;2023-03-21T05:45:04;9.00;;;8.10;;
32491;SDS011;20605;49.742;18.802;2023-03-21T05:47:31;11.60;;;8.90;;
32491;SDS011;20605;49.742;18.802;2023-03-21T05:49:58;10.90;;;7.60;;
32491;SDS011;20605;49.742;18.802;2023-03-21T05:52:24;9.60;;;7.90;;
32491;SDS011;20605;49.742;18.802;2023-03-21T05:54:50;9.20;;;7.20;;
32491;SDS011;20605;49.742;18.802;2023-03-21T05:57:19;9.90;;;8.20;;
32491;SDS011;20605;49.742;18.802;2023-03-21T06:00:05;8.80;;;7.90;;
32491;SDS011;20605;49.742;18.802;2023-03-21T06:02:40;8.80;;;7.60;;
32491;SDS011;20605;49.742;18.802;2023-03-21T06:05:17;9.00;;;8.10;;
32491;SDS011;20605;49.742;18.802;2023-03-21T06:07:43;9.10;;;8.10;;
32491;SDS011;20605;49.742;18.802;2023-03-21T06:10:09;9.20;;;7.90;;
32491;SDS011;20605;49.742;18.802;2023-03-21T06:12:37;10.40;;;8.60;;
32491;SDS011;20605;49.742;18.802;2023-03-21T06:15:24;11.80;;;9.00;;
32491;SDS011;20605;49.742;18.802;2023-03-21T06:18:05;13.20;;;10.50;;
32491;SDS011;20605;49.742;18.802;2023-03-21T06:20:34;12.00;;;10.80;;
32491;SDS011;20605;49.742;18.802;2023-03-21T06:23:06;11.80;;;10.40;;
32491;SDS011;20605;49.742;18.802;2023-03-21T06:25:32;10.80;;;9.20;;
32491;SDS011;20605;49.742;18.802;2023-03-21T06:27:58;10.00;;;9.00;;
32491;SDS011;20605;49.742;18.802;2023-03-21T06:30:24;10.60;;;9.00;;
32491;SDS011;20605;49.742;18.802;2023-03-21T06:33:13;11.10;;;8.80;;
32491;SDS011;20605;49.742;18.802;2023-03-21T06:35:39;13.30;;;9.40;;
32491;SDS011;20605;49.742;18.802;2023-03-21T06:38:05;9.80;;;8.00;;
32491;SDS011;20605;49.742;18.802;2023-03-21T06:40:33;10.70;;;8.20;;
32491;SDS011;20605;49.742;18.802;2023-03-21T06:42:58;10.40;;;8.90;;
32491;SDS011;20605;49.742;18.802;2023-03-21T06:45:24;13.80;;;10.80;;
32491;SDS011;20605;49.742;18.802;2023-03-21T06:47:51;12.30;;;10.00;;
32491;SDS011;20605;49.742;18.802;2023-03-21T06:50:25;10.10;;;8.50;;
32491;SDS011;20605;49.742;18.802;2023-03-21T06:52:51;10.00;;;8.90;;
32491;SDS011;20605;49.742;18.802;2023-03-21T06:55:17;7.00;;;6.30;;
32491;SDS011;20605;49.742;18.802;2023-03-21T06:57:44;6.40;;;5.80;;
32491;SDS011;20605;49.742;18.802;2023-03-21T07:00:11;5.70;;;5.20;;
32491;SDS011;20605;49.742;18.802;2023-03-21T07:02:41;5.70;;;5.10;;
32491;SDS011;20605;49.742;18.802;2023-03-21T07:05:14;6.20;;;5.60;;
32491;SDS011;20605;49.742;18.802;2023-03-21T07:07:42;6.00;;;5.50;;
32491;SDS011;20605;49.742;18.802;2023-03-21T07:10:08;5.50;;;5.00;;
32491;SDS011;20605;49.742;18.802;2023-03-21T07:12:47;5.80;;;5.20;;
32491;SDS011;20605;49.742;18.802;2023-03-21T07:15:29;5.80;;;4.90;;
32491;SDS011;20605;49.742;18.802;2023-03-21T07:17:55;6.20;;;5.70;;
32491;SDS011;20605;49.742;18.802;2023-03-21T07:20:27;6.20;;;5.60;;
32491;SDS011;20605;49.742;18.802;2023-03-21T07:22:53;5.20;;;4.80;;
32491;SDS011;20605;49.742;18.802;2023-03-21T07:25:18;8.20;;;7.40;;
32491;SDS011;20605;49.742;18.802;2023-03-21T07:27:45;8.20;;;7.40;;
32491;SDS011;20605;49.742;18.802;2023-03-21T07:30:11;9.50;;;8.60;;
32491;SDS011;20605;49.742;18.802;2023-03-21T07:32:37;10.70;;;9.60;;
32491;SDS011;20605;49.742;18.802;2023-03-21T07:35:05;9.50;;;8.50;;
32491;SDS011;20605;49.742;18.802;2023-03-21T07:37:32;9.90;;;8.90;;
32491;SDS011;20605;49.742;18.802;2023-03-21T07:39:58;8.70;;;7.90;;
32491;SDS011;20605;49.742;18.802;2023-03-21T07:42:24;11.00;;;9.50;;
32491;SDS011;20605;49.742;18.802;2023-03-21T07:44:57;10.90;;;9.90;;
32491;SDS011;20605;49.742;18.802;2023-03-21T07:47:22;13.40;;;12.00;;
32491;SDS011;20605;49.742;18.802;2023-03-21T07:49:48;15.70;;;14.10;;
32491;SDS011;20605;49.742;18.802;2023-03-21T07:52:15;17.20;;;15.30;;
32491;SDS011;20605;49.742;18.802;2023-03-21T07:54:41;16.70;;;14.90;;
32491;SDS011;20605;49.742;18.802;2023-03-21T07:57:07;17.30;;;14.90;;
32491;SDS011;20605;49.742;18.802;2023-03-21T07:59:33;17.70;;;15.80;;
32491;SDS011;20605;49.742;18.802;2023-03-21T08:01:58;17.70;;;15.80;;
32491;SDS011;20605;49.742;18.802;2023-03-21T08:04:24;17.70;;;14.00;;
32491;SDS011;20605;49.742;18.802;2023-03-21T08:06:50;16.30;;;14.60;;
32491;SDS011;20605;49.742;18.802;2023-03-21T08:09:16;18.90;;;16.80;;
32491;SDS011;20605;49.742;18.802;2023-03-21T08:11:41;19.50;;;15.40;;
32491;SDS011;20605;49.742;18.802;2023-03-21T08:14:07;16.70;;;15.00;;
32491;SDS011;20605;49.742;18.802;2023-03-21T08:16:33;24.30;;;18.20;;
32491;SDS011;20605;49.742;18.802;2023-03-21T08:18:59;20.60;;;17.10;;
32491;SDS011;20605;49.742;18.802;2023-03-21T08:21:25;18.60;;;16.40;;
32491;SDS011;20605;49.742;18.802;2023-03-21T08:23:52;17.80;;;15.80;;
32491;SDS011;20605;49.742;18.802;2023-03-21T08:26:18;15.50;;;13.60;;
32491;SDS011;20605;49.742;18.802;2023-03-21T08:28:44;15.90;;;14.20;;
32491;SDS011;20605;49.742;18.802;2023-03-21T08:31:11;19.10;;;16.20;;
32491;SDS011;20605;49.742;18.802;2023-03-21T08:33:37;23.00;;;19.90;;
32491;SDS011;20605;49.742;18.802;2023-03-21T08:36:05;22.20;;;19.90;;
32491;SDS011;20605;49.742;18.802;2023-03-21T08:38:31;23.20;;;20.20;;
32491;SDS011;20605;49.742;18.802;2023-03-21T08:40:58;24.70;;;21.70;;
32491;SDS011;20605;49.742;18.802;2023-03-21T08:43:25;23.80;;;20.90;;
32491;SDS011;20605;49.742;18.802;2023-03-21T08:45:51;25.00;;;22.10;;
32491;SDS011;20605;49.742;18.802;2023-03-21T08:48:18;27.40;;;23.30;;
32491;SDS011;20605;49.742;18.802;2023-03-21T08:50:43;27.60;;;23.70;;
32491;SDS011;20605;49.742;18.802;2023-03-21T08:53:09;30.60;;;25.00;;
32491;SDS011;20605;49.742;18.802;2023-03-21T08:55:35;29.40;;;23.40;;
32491;SDS011;20605;49.742;18.802;2023-03-21T08:58:02;29.30;;;26.00;;
32491;SDS011;20605;49.742;18.802;2023-03-21T09:00:27;31.00;;;27.30;;
32491;SDS011;20605;49.742;18.802;2023-03-21T09:02:55;30.50;;;26.40;;
32491;SDS011;20605;49.742;18.802;2023-03-21T09:05:23;31.60;;;27.20;;
32491;SDS011;20605;49.742;18.802;2023-03-21T09:07:52;31.40;;;27.80;;
32491;SDS011;20605;49.742;18.802;2023-03-21T09:10:19;35.50;;;29.70;;
32491;SDS011;20605;49.742;18.802;2023-03-21T09:12:46;36.40;;;30.40;;
32491;SDS011;20605;49.742;18.802;2023-03-21T09:15:14;38.10;;;31.70;;
32491;SDS011;20605;49.742;18.802;2023-03-21T09:17:40;40.80;;;33.80;;
32491;SDS011;20605;49.742;18.802;2023-03-21T09:20:13;47.20;;;38.40;;
32491;SDS011;20605;49.742;18.802;2023-03-21T09:22:50;39.40;;;33.30;;
32491;SDS011;20605;49.742;18.802;2023-03-21T09:25:17;61.50;;;40.40;;
32491;SDS011;20605;49.742;18.802;2023-03-21T09:27:44;71.80;;;47.70;;
32491;SDS011;20605;49.742;18.802;2023-03-21T09:30:13;49.90;;;36.50;;
32491;SDS011;20605;49.742;18.802;2023-03-21T09:32:40;38.30;;;32.10;;
32491;SDS011;20605;49.742;18.802;2023-03-21T09:35:06;42.80;;;36.20;;
32491;SDS011;20605;49.742;18.802;2023-03-21T09:37:35;44.00;;;36.70;;
32491;SDS011;20605;49.742;18.802;2023-03-21T09:40:09;42.80;;;34.20;;
32491;SDS011;20605;49.742;18.802;2023-03-21T09:43:02;45.10;;;35.00;;
32491;SDS011;20605;49.742;18.802;2023-03-21T09:48:38;38.10;;;29.40;;
32491;SDS011;20605;49.742;18.802;2023-03-21T09:51:18;38.20;;;29.10;;
32491;SDS011;20605;49.742;18.802;2023-03-21T09:53:47;36.10;;;29.60;;
32491;SDS011;20605;49.742;18.802;2023-03-21T09:56:14;36.80;;;31.20;;
32491;SDS011;20605;49.742;18.802;2023-03-21T10:01:27;31.70;;;26.90;;
32491;SDS011;20605;49.742;18.802;2023-03-21T10:04:05;40.00;;;30.10;;
32491;SDS011;20605;49.742;18.802;2023-03-21T10:06:35;37.30;;;30.30;;
32491;SDS011;20605;49.742;18.802;2023-03-21T10:09:15;36.40;;;29.60;;
32491;SDS011;20605;49.742;18.802;2023-03-21T10:11:59;33.40;;;29.60;;
32491;SDS011;20605;49.742;18.802;2023-03-21T10:14:35;36.40;;;32.50;;
32491;SDS011;20605;49.742;18.802;2023-03-21T10:17:11;36.20;;;32.00;;
32491;SDS011;20605;49.742;18.802;2023-03-21T10:20:15;32.90;;;29.30;;
32491;SDS011;20605;49.742;18.802;2023-03-21T10:22:41;32.20;;;28.70;;
32491;SDS011;20605;49.742;18.802;2023-03-21T10:25:25;37.40;;;32.20;;
32491;SDS011;20605;49.742;18.802;2023-03-21T10:28:14;39.10;;;33.40;;
32491;SDS011;20605;49.742;18.802;2023-03-21T10:31:04;35.40;;;30.70;;
32491;SDS011;20605;49.742;18.802;2023-03-21T10:33:36;40.80;;;29.80;;
32491;SDS011;20605;49.742;18.802;2023-03-21T10:36:09;36.30;;;29.10;;
32491;SDS011;20605;49.742;18.802;2023-03-21T10:38:59;32.90;;;28.70;;
32491;SDS011;20605;49.742;18.802;2023-03-21T10:41:28;35.20;;;30.50;;
32491;SDS011;20605;49.742;18.802;2023-03-21T10:44:06;34.90;;;30.00;;
32491;SDS011;20605;49.742;18.802;2023-03-21T10:46:36;31.70;;;27.60;;
32491;SDS011;20605;49.742;18.802;2023-03-21T10:49:02;31.10;;;27.80;;
32491;SDS011;20605;49.742;18.802;2023-03-21T10:51:32;33.10;;;28.40;;
32491;SDS011;20605;49.742;18.802;2023-03-21T10:54:05;34.50;;;29.20;;
32491;SDS011;20605;49.742;18.802;2023-03-21T10:56:37;35.30;;;30.30;;
32491;SDS011;20605;49.742;18.802;2023-03-21T10:59:05;38.20;;;32.10;;
32491;SDS011;20605;49.742;18.802;2023-03-21T11:01:37;36.40;;;30.90;;
32491;SDS011;20605;49.742;18.802;2023-03-21T11:04:07;42.70;;;33.70;;
32491;SDS011;20605;49.742;18.802;2023-03-21T11:06:38;36.90;;;30.80;;
32491;SDS011;20605;49.742;18.802;2023-03-21T11:09:17;38.40;;;30.90;;
32491;SDS011;20605;49.742;18.802;2023-03-21T11:12:08;37.50;;;31.00;;
32491;SDS011;20605;49.742;18.802;2023-03-21T11:14:40;35.30;;;29.60;;
32491;SDS011;20605;49.742;18.802;2023-03-21T11:19:46;35.40;;;29.30;;
32491;SDS011;20605;49.742;18.802;2023-03-21T11:22:14;33.70;;;27.10;;
32491;SDS011;20605;49.742;18.802;2023-03-21T11:24:41;34.60;;;28.00;;
32491;SDS011;20605;49.742;18.802;2023-03-21T11:27:11;28.60;;;24.20;;
32491;SDS011;20605;49.742;18.802;2023-03-21T11:29:38;28.50;;;24.50;;
32491;SDS011;20605;49.742;18.802;2023-03-21T11:32:10;30.80;;;24.70;;
32491;SDS011;20605;49.742;18.802;2023-03-21T11:34:46;28.20;;;24.50;;
32491;SDS011;20605;49.742;18.802;2023-03-21T11:39:48;30.40;;;25.10;;
32491;SDS011;20605;49.742;18.802;2023-03-21T11:42:43;30.50;;;24.30;;
32491;SDS011;20605;49.742;18.802;2023-03-21T11:45:17;27.30;;;23.90;;
32491;SDS011;20605;49.742;18.802;2023-03-21T11:47:43;26.70;;;23.40;;
32491;SDS011;20605;49.742;18.802;2023-03-21T11:52:48;26.00;;;22.00;;
32491;SDS011;20605;49.742;18.802;2023-03-21T12:03:48;28.50;;;22.10;;
32491;SDS011;20605;49.742;18.802;2023-03-21T12:06:38;25.40;;;21.20;;
32491;SDS011;20605;49.742;18.802;2023-03-21T12:14:34;24.70;;;20.60;;
32491;SDS011;20605;49.742;18.802;2023-03-21T12:20:14;22.80;;;20.30;;
32491;SDS011;20605;49.742;18.802;2023-03-21T12:22:52;24.50;;;20.90;;
32491;SDS011;20605;49.742;18.802;2023-03-21T12:25:31;26.20;;;20.20;;
32491;SDS011;20605;49.742;18.802;2023-03-21T12:35:53;22.20;;;19.90;;
32491;SDS011;20605;49.742;18.802;2023-03-21T12:38:35;25.70;;;22.30;;
32491;SDS011;20605;49.742;18.802;2023-03-21T12:41:21;23.90;;;20.80;;
32491;SDS011;20605;49.742;18.802;2023-03-21T12:46:49;27.40;;;21.70;;
32491;SDS011;20605;49.742;18.802;2023-03-21T12:52:13;26.10;;;23.20;;
32491;SDS011;20605;49.742;18.802;2023-03-21T12:54:54;30.00;;;23.50;;
32491;SDS011;20605;49.742;18.802;2023-03-21T12:57:43;25.30;;;22.00;;
32491;SDS011;20605;49.742;18.802;2023-03-21T13:00:57;31.30;;;25.40;;
32491;SDS011;20605;49.742;18.802;2023-03-21T13:03:40;30.00;;;24.80;;
32491;SDS011;20605;49.742;18.802;2023-03-21T13:06:10;30.60;;;24.20;;
32491;SDS011;20605;49.742;18.802;2023-03-21T13:11:13;39.60;;;32.20;;
32491;SDS011;20605;49.742;18.802;2023-03-21T13:13:46;32.90;;;26.40;;
32491;SDS011;20605;49.742;18.802;2023-03-21T13:24:25;35.10;;;27.80;;
32491;SDS011;20605;49.742;18.802;2023-03-21T13:27:35;39.00;;;29.30;;
32491;SDS011;20605;49.742;18.802;2023-03-21T13:29:51;35.00;;;28.90;;
32491;SDS011;20605;49.742;18.802;2023-03-21T13:34:58;32.60;;;27.00;;
32491;SDS011;20605;49.742;18.802;2023-03-21T13:37:38;38.30;;;28.80;;
32491;SDS011;20605;49.742;18.802;2023-03-21T13:40:19;37.80;;;28.30;;
32491;SDS011;20605;49.742;18.802;2023-03-21T13:42:51;34.30;;;26.50;;
32491;SDS011;20605;49.742;18.802;2023-03-21T13:45:27;34.50;;;28.50;;
32491;SDS011;20605;49.742;18.802;2023-03-21T13:47:57;34.60;;;26.10;;
32491;SDS011;20605;49.742;18.802;2023-03-21T13:50:38;41.30;;;32.90;;
32491;SDS011;20605;49.742;18.802;2023-03-21T13:53:20;32.80;;;26.90;;
32491;SDS011;20605;49.742;18.802;2023-03-21T13:55:56;33.00;;;25.00;;
32491;SDS011;20605;49.742;18.802;2023-03-21T13:58:32;37.50;;;25.50;;
32491;SDS011;20605;49.742;18.802;2023-03-21T14:01:04;32.00;;;24.40;;
32491;SDS011;20605;49.742;18.802;2023-03-21T14:03:37;35.50;;;23.30;;
32491;SDS011;20605;49.742;18.802;2023-03-21T14:06:04;35.40;;;23.90;;
32491;SDS011;20605;49.742;18.802;2023-03-21T14:08:33;36.40;;;25.20;;
32491;SDS011;20605;49.742;18.802;2023-03-21T14:11:02;34.00;;;25.60;;
32491;SDS011;20605;49.742;18.802;2023-03-21T14:13:31;44.00;;;26.50;;
32491;SDS011;20605;49.742;18.802;2023-03-21T14:16:09;38.00;;;24.50;;
32491;SDS011;20605;49.742;18.802;2023-03-21T14:18:42;45.10;;;29.30;;
32491;SDS011;20605;49.742;18.802;2023-03-21T14:21:21;41.10;;;28.50;;
32491;SDS011;20605;49.742;18.802;2023-03-21T14:26:22;43.10;;;30.50;;
32491;SDS011;20605;49.742;18.802;2023-03-21T14:28:50;42.60;;;30.70;;
32491;SDS011;20605;49.742;18.802;2023-03-21T14:31:17;49.20;;;37.20;;
32491;SDS011;20605;49.742;18.802;2023-03-21T14:33:45;46.00;;;34.30;;
32491;SDS011;20605;49.742;18.802;2023-03-21T14:36:18;59.10;;;40.60;;
32491;SDS011;20605;49.742;18.802;2023-03-21T14:39:00;84.40;;;51.30;;
32491;SDS011;20605;49.742;18.802;2023-03-21T14:41:48;60.90;;;42.30;;
32491;SDS011;20605;49.742;18.802;2023-03-21T14:46:49;53.20;;;39.60;;
32491;SDS011;20605;49.742;18.802;2023-03-21T14:49:36;47.00;;;36.40;;
32491;SDS011;20605;49.742;18.802;2023-03-21T14:52:03;50.00;;;39.10;;
32491;SDS011;20605;49.742;18.802;2023-03-21T14:54:34;44.70;;;36.70;;
32491;SDS011;20605;49.742;18.802;2023-03-21T14:57:06;50.10;;;38.60;;
32491;SDS011;20605;49.742;18.802;2023-03-21T14:59:45;52.50;;;38.30;;
32491;SDS011;20605;49.742;18.802;2023-03-21T15:02:36;48.70;;;36.40;;
32491;SDS011;20605;49.742;18.802;2023-03-21T15:07:54;50.80;;;38.60;;
32491;SDS011;20605;49.742;18.802;2023-03-21T15:10:25;51.00;;;37.90;;
32491;SDS011;20605;49.742;18.802;2023-03-21T15:12:56;49.20;;;37.30;;
32491;SDS011;20605;49.742;18.802;2023-03-21T15:15:25;50.30;;;37.30;;
32491;SDS011;20605;49.742;18.802;2023-03-21T15:17:53;51.40;;;37.80;;
32491;SDS011;20605;49.742;18.802;2023-03-21T15:20:23;52.70;;;39.50;;
32491;SDS011;20605;49.742;18.802;2023-03-21T15:23:16;53.50;;;38.30;;
32491;SDS011;20605;49.742;18.802;2023-03-21T15:25:48;46.70;;;36.30;;
32491;SDS011;20605;49.742;18.802;2023-03-21T15:28:15;45.80;;;37.60;;
32491;SDS011;20605;49.742;18.802;2023-03-21T15:30:47;46.60;;;36.80;;
32491;SDS011;20605;49.742;18.802;2023-03-21T15:33:15;43.90;;;33.70;;
32491;SDS011;20605;49.742;18.802;2023-03-21T15:35:43;38.90;;;31.70;;
32491;SDS011;20605;49.742;18.802;2023-03-21T15:38:21;42.60;;;33.50;;
32491;SDS011;20605;49.742;18.802;2023-03-21T15:43:39;56.80;;;40.70;;
32491;SDS011;20605;49.742;18.802;2023-03-21T15:46:13;42.20;;;31.40;;
32491;SDS011;20605;49.742;18.802;2023-03-21T15:48:41;45.50;;;33.00;;
32491;SDS011;20605;49.742;18.802;2023-03-21T15:51:20;38.00;;;29.40;;
32491;SDS011;20605;49.742;18.802;2023-03-21T15:53:49;37.90;;;28.20;;
32491;SDS011;20605;49.742;18.802;2023-03-21T15:56:18;47.30;;;35.30;;
32491;SDS011;20605;49.742;18.802;2023-03-21T15:58:47;43.50;;;34.50;;
32491;SDS011;20605;49.742;18.802;2023-03-21T16:01:20;37.10;;;27.80;;
32491;SDS011;20605;49.742;18.802;2023-03-21T16:03:47;38.30;;;28.10;;
32491;SDS011;20605;49.742;18.802;2023-03-21T16:06:21;34.20;;;26.60;;
32491;SDS011;20605;49.742;18.802;2023-03-21T16:09:13;33.90;;;26.60;;
32491;SDS011;20605;49.742;18.802;2023-03-21T16:11:53;36.80;;;29.50;;
32491;SDS011;20605;49.742;18.802;2023-03-21T16:14:21;39.90;;;31.00;;
32491;SDS011;20605;49.742;18.802;2023-03-21T16:16:48;41.10;;;30.90;;
32491;SDS011;20605;49.742;18.802;2023-03-21T16:19:15;42.80;;;32.40;;
32491;SDS011;20605;49.742;18.802;2023-03-21T16:21:41;41.00;;;31.90;;
32491;SDS011;20605;49.742;18.802;2023-03-21T16:24:08;40.90;;;32.20;;
32491;SDS011;20605;49.742;18.802;2023-03-21T16:26:36;50.00;;;38.20;;
32491;SDS011;20605;49.742;18.802;2023-03-21T16:29:05;63.10;;;47.90;;
32491;SDS011;20605;49.742;18.802;2023-03-21T16:31:33;53.60;;;40.70;;
32491;SDS011;20605;49.742;18.802;2023-03-21T16:34:01;48.80;;;36.10;;